Time,TemperatureF,DewpointF,PressureIn,WindDirection,WindDirectionDegrees,WindSpeedMPH,WindSpeedGustMPH,Humidity,HourlyPrecipIn,Conditions,Clouds,dailyrainin,SoftwareType,DateUTC
2013-06-22 11:02:00,80.0,69.0,-100.00,SE,140,1.0,4.0,68,0.00,,,-99.99,,2013-06-22 15:02:00,
2013-06-22 11:34:00,81.0,69.0,-100.00,SSE,160,2.0,4.0,65,0.00,,,-99.99,,2013-06-22 15:34:00,
2013-06-22 11:43:00,82.0,69.0,-100.00,South,185,2.0,6.0,62,0.00,,,-99.99,,2013-06-22 15:43:00,
2013-06-22 11:53:00,82.0,69.0,-100.00,South,185,2.0,6.0,62,0.00,,,-99.99,,2013-06-22 15:53:00,
2013-06-22 12:02:00,83.0,68.0,-100.00,South,180,2.0,6.0,59,0.00,,,-99.99,,2013-06-22 16:02:00,
2013-06-22 12:12:00,84.0,67.0,-100.00,SSW,200,2.0,6.0,56,0.00,,,-99.99,,2013-06-22 16:12:00,
2013-06-22 12:22:00,85.0,68.0,-100.00,ESE,110,2.0,6.0,57,0.00,,,-99.99,,2013-06-22 16:22:00,
2013-06-22 12:34:00,85.0,67.0,-100.00,SW,215,2.0,7.0,55,0.00,,,-99.99,,2013-06-22 16:34:00,
2013-06-22 12:43:00,87.0,65.0,-100.00,SW,225,3.0,6.0,48,0.00,,,-99.99,,2013-06-22 16:43:00,
2013-06-22 12:52:00,87.0,67.0,-100.00,SE,145,1.0,6.0,51,0.00,,,-99.99,,2013-06-22 16:52:00,
2013-06-22 13:02:00,86.0,66.0,-100.00,SSW,195,6.0,9.0,51,0.00,,,-99.99,,2013-06-22 17:02:00,
2013-06-22 13:11:00,86.0,65.0,-100.00,South,170,4.0,7.0,48,0.00,,,-99.99,,2013-06-22 17:11:00,
2013-06-22 13:22:00,87.0,66.0,-100.00,South,180,2.0,9.0,49,0.00,,,-99.99,,2013-06-22 17:22:00,
2013-06-22 13:34:00,87.0,67.0,-100.00,South,180,1.0,8.0,51,0.00,,,-99.99,,2013-06-22 17:34:00,
2013-06-22 13:43:00,87.0,65.0,-100.00,South,190,3.0,7.0,47,0.00,,,-99.99,,2013-06-22 17:43:00,
2013-06-22 13:52:00,88.0,64.0,-100.00,SSW,205,4.0,11.0,46,0.00,,,-99.99,,2013-06-22 17:52:00,
2013-06-22 14:02:00,89.0,65.0,-100.00,SW,225,2.0,9.0,44,0.00,,,-99.99,,2013-06-22 18:02:00,
2013-06-22 14:12:00,89.0,66.0,-100.00,SSE,150,2.0,6.0,46,0.00,,,-99.99,,2013-06-22 18:12:00,
2013-06-22 14:43:00,87.0,65.0,-100.00,SSE,160,1.0,6.0,48,0.00,,,-99.99,,2013-06-22 18:43:00,
2013-06-22 14:52:00,88.0,65.0,-100.00,SSW,205,1.0,4.0,46,0.00,,,-99.99,,2013-06-22 18:52:00,
2013-06-22 15:01:00,88.0,65.0,-100.00,SE,140,2.0,5.0,46,0.00,,,-99.99,,2013-06-22 19:01:00,
2013-06-22 15:11:00,90.0,64.0,-100.00,SW,220,2.0,8.0,42,0.00,,,-99.99,,2013-06-22 19:11:00,
2013-06-22 15:22:00,89.0,63.0,-100.00,NW,320,2.0,6.0,42,0.00,,,-99.99,,2013-06-22 19:22:00,
2013-06-22 15:33:00,88.0,65.0,-100.00,SSE,150,2.0,6.0,46,0.00,,,-99.99,,2013-06-22 19:33:00,
2013-06-22 15:43:00,89.0,63.0,-100.00,ENE,65,1.0,5.0,41,0.00,,,-99.99,,2013-06-22 19:43:00,
2013-06-22 15:53:00,90.0,62.0,-100.00,SE,145,3.0,4.0,38,0.00,,,-99.99,,2013-06-22 19:53:00,
2013-06-22 16:02:00,91.0,62.0,-100.00,SE,140,2.0,6.0,37,0.00,,,-99.99,,2013-06-22 20:02:00,
2013-06-22 16:11:00,89.0,64.0,-100.00,SSE,150,4.0,6.0,42,0.00,,,-99.99,,2013-06-22 20:11:00,
2013-06-22 16:22:00,89.0,65.0,-100.00,SE,145,2.0,6.0,46,0.00,,,-99.99,,2013-06-22 20:22:00,
2013-06-22 16:33:00,89.0,66.0,-100.00,SSE,150,4.0,11.0,47,0.00,,,-99.99,,2013-06-22 20:33:00,
2013-06-22 16:43:00,89.0,66.0,-100.00,SE,135,1.0,7.0,47,0.00,,,-99.99,,2013-06-22 20:43:00,
2013-06-22 16:53:00,89.0,66.0,-100.00,SE,135,1.0,7.0,47,0.00,,,-99.99,,2013-06-22 20:53:00,
2013-06-22 17:01:00,90.0,67.0,-100.00,ENE,70,1.0,3.0,48,0.00,,,-99.99,,2013-06-22 21:01:00,
2013-06-22 17:11:00,87.0,67.0,-100.00,NE,55,1.0,4.0,52,0.00,,,-99.99,,2013-06-22 21:11:00,
2013-06-22 17:22:00,87.0,67.0,-100.00,East,85,0.0,3.0,51,0.00,,,-99.99,,2013-06-22 21:22:00,
2013-06-22 17:34:00,88.0,69.0,-100.00,NE,50,0.0,3.0,52,0.00,,,-99.99,,2013-06-22 21:34:00,
2013-06-22 17:43:00,88.0,67.0,-100.00,SSE,150,1.0,6.0,50,0.00,,,-99.99,,2013-06-22 21:43:00,
2013-06-22 17:53:00,87.0,67.0,-100.00,ENE,60,1.0,4.0,50,0.00,,,-99.99,,2013-06-22 21:53:00,
2013-06-22 18:02:00,88.0,66.0,-100.00,SE,145,2.0,5.0,48,0.00,,,-99.99,,2013-06-22 22:02:00,
2013-06-22 18:12:00,89.0,66.0,-100.00,ESE,115,1.0,3.0,46,0.00,,,-99.99,,2013-06-22 22:12:00,
2013-06-22 18:23:00,89.0,66.0,-100.00,SE,130,3.0,6.0,47,0.00,,,-99.99,,2013-06-22 22:23:00,
2013-06-22 18:33:00,89.0,66.0,-100.00,SSE,165,4.0,9.0,46,0.00,,,-99.99,,2013-06-22 22:33:00,
2013-06-22 18:43:00,88.0,65.0,-100.00,South,170,4.0,9.0,47,0.00,,,-99.99,,2013-06-22 22:43:00,
2013-06-22 18:52:00,89.0,64.0,-100.00,SSW,205,2.0,7.0,43,0.00,,,-99.99,,2013-06-22 22:52:00,
2013-06-22 19:01:00,89.0,65.0,-100.00,South,175,2.0,6.0,45,0.00,,,-99.99,,2013-06-22 23:01:00,
2013-06-22 19:11:00,88.0,65.0,-100.00,SSE,155,2.0,7.0,46,0.00,,,-99.99,,2013-06-22 23:11:00,
2013-06-22 19:22:00,88.0,65.0,-100.00,SSW,195,3.0,7.0,45,0.00,,,-99.99,,2013-06-22 23:22:00,
2013-06-22 19:43:00,87.0,65.0,-100.00,SSE,160,2.0,6.0,47,0.00,,,-99.99,,2013-06-22 23:43:00,
2013-06-22 19:52:00,87.0,64.0,-100.00,South,180,1.0,6.0,47,0.00,,,-99.99,,2013-06-22 23:52:00,
2013-06-22 20:01:00,87.0,64.0,-100.00,SSW,205,3.0,6.0,47,0.00,,,-99.99,,2013-06-23 00:01:00,
2013-06-22 20:11:00,86.0,65.0,-100.00,SSE,155,1.0,5.0,49,0.00,,,-99.99,,2013-06-23 00:11:00,
2013-06-22 20:22:00,86.0,65.0,-100.00,SSW,205,1.0,4.0,49,0.00,,,-99.99,,2013-06-23 00:22:00,
2013-06-22 20:33:00,86.0,65.0,-100.00,SSW,205,1.0,4.0,49,0.00,,,-99.99,,2013-06-23 00:33:00,
2013-06-22 20:42:00,83.0,67.0,-100.00,East,100,0.0,2.0,58,0.00,,,-99.99,,2013-06-23 00:42:00,
2013-06-22 20:53:00,82.0,67.0,-100.00,East,80,0.0,1.0,61,0.00,,,-99.99,,2013-06-23 00:53:00,
2013-06-22 22:11:00,75.0,68.0,-100.00,NE,55,1.0,1.0,78,0.00,,,-99.99,,2013-06-23 02:11:00,
2013-06-22 22:41:00,73.0,68.0,-100.00,East,90,0.0,0.0,83,0.00,,,-99.99,,2013-06-23 02:41:00,
2013-06-22 22:52:00,73.0,68.0,-100.00,East,85,0.0,0.0,84,0.00,,,-99.99,,2013-06-23 02:52:00,
2013-06-22 23:11:00,72.0,68.0,-100.00,ENE,70,0.0,1.0,86,0.00,,,-99.99,,2013-06-23 03:11:00,
2013-06-22 23:31:00,71.0,67.0,-100.00,East,85,0.0,1.0,88,0.00,,,-99.99,,2013-06-23 03:31:00,